Terminal Aerodrome Forecast
Issued by NWS Louisville, KY

Home | Current Version | Previous Version | Graphics & Text | Print | Product List | Glossary On
Versions: 1 2 3 4 5 6 7 8 9 10 11 12 13 14 15 16 17 18
000
FTUS43 KLMK 272300
TAFBWG
TAF
KBWG 272325Z 2800/2824 30007KT P6SM BKN025
     FM280100 VRB03KT P6SM SCT025 BKN040
     FM280800 00000KT P6SM BKN090
     FM281600 19009KT P6SM SCT070=

USA.gov is the U.S. government's official web portal to all federal, state and local government web resources and services.